Time;durP1;ratioP1;P1;durP2;ratioP2;P2;SDS_P1;SDS_P2;PMS_P1;PMS_P2;Temp;Humidity;BMP_temperature;BMP_pressure;BME280_temperature;BME280_humidity;BME280_pressure;Samples;Min_cycle;Max_cycle;Signal;HPM_P1;HPM_P2
2023/04/06 00:01:40;;;;;;;3.50;3.20;;;19.40;46.50;;;;;;4975379;28;20267;-68
2023/04/06 00:04:07;;;;;;;2.95;2.75;;;19.30;46.40;;;;;;4975583;28;20204;-69
2023/04/06 00:06:33;;;;;;;3.30;3.00;;;19.40;46.50;;;;;;4975418;28;20225;-69
2023/04/06 00:09:00;;;;;;;4.28;3.40;;;19.30;46.40;;;;;;4975709;28;20225;-69
2023/04/06 00:11:26;;;;;;;2.88;2.67;;;19.30;46.40;;;;;;4975109;28;20253;-69
2023/04/06 00:13:52;;;;;;;2.80;2.60;;;19.30;46.30;;;;;;4975507;28;20193;-68
2023/04/06 00:16:20;;;;;;;3.65;3.35;;;19.30;47.00;;;;;;4976603;28;20184;-69
2023/04/06 00:18:46;;;;;;;2.85;2.65;;;19.30;46.30;;;;;;4959295;28;20240;-69
2023/04/06 00:21:14;;;;;;;3.25;2.95;;;19.30;46.40;;;;;;4975287;28;20296;-69
2023/04/06 00:23:41;;;;;;;3.20;2.90;;;19.30;46.30;;;;;;4967557;28;20201;-69
2023/04/06 00:26:08;;;;;;;3.20;3.00;;;19.30;46.40;;;;;;4975246;28;20583;-69
2023/04/06 00:28:34;;;;;;;3.53;2.78;;;19.30;47.00;;;;;;4975039;28;20212;-69
2023/04/06 00:30:59;;;;;;;2.75;2.50;;;19.30;46.50;;;;;;4955668;29;20174;-69
2023/04/06 00:33:25;;;;;;;3.17;2.88;;;19.30;46.40;;;;;;4957170;28;20217;-69
2023/04/06 00:35:51;;;;;;;2.75;2.55;;;19.30;46.50;;;;;;4976276;28;20194;-69
2023/04/06 00:38:17;;;;;;;3.75;2.85;;;19.30;46.40;;;;;;4974896;28;20312;-68
2023/04/06 00:40:46;;;;;;;2.80;2.58;;;19.30;46.40;;;;;;4974734;28;20216;-69
2023/04/06 00:43:14;;;;;;;2.58;2.38;;;19.30;46.40;;;;;;4975207;28;20213;-69
2023/04/06 00:45:42;;;;;;;2.80;2.60;;;19.30;46.40;;;;;;4974746;28;20708;-69
2023/04/06 00:48:08;;;;;;;2.85;2.47;;;19.30;46.40;;;;;;4974768;28;20280;-68
2023/04/06 00:50:35;;;;;;;2.85;2.65;;;19.30;46.40;;;;;;4974162;28;20200;-69
2023/04/06 00:53:01;;;;;;;3.05;2.72;;;19.30;46.40;;;;;;4975059;28;20236;-69
2023/04/06 00:55:29;;;;;;;3.20;2.92;;;19.30;46.40;;;;;;4958485;28;20198;-69
2023/04/06 00:57:59;;;;;;;2.92;2.72;;;19.30;46.40;;;;;;4990805;28;20209;-69
2023/04/06 01:00:26;;;;;;;2.85;2.65;;;19.30;46.40;;;;;;4974396;28;20188;-68
2023/04/06 01:02:57;;;;;;;2.85;2.53;;;19.30;46.30;;;;;;4974630;28;20244;-69
2023/04/06 01:05:32;;;;;;;3.30;3.00;;;19.30;46.40;;;;;;4975495;28;20189;-69
2023/04/06 01:07:59;;;;;;;2.78;2.58;;;19.30;46.30;;;;;;4973675;28;20263;-68
2023/04/06 01:10:29;;;;;;;3.03;2.72;;;19.30;46.40;;;;;;4974174;28;20256;-68
2023/04/06 01:13:04;;;;;;;2.78;2.55;;;19.20;46.30;;;;;;4974475;28;20711;-69
2023/04/06 01:15:50;;;;;;;3.67;3.10;;;19.20;46.30;;;;;;4967232;28;20340;-69
2023/04/06 01:18:29;;;;;;;2.60;2.40;;;19.20;46.30;;;;;;4974197;28;20217;-69
2023/04/06 01:21:15;;;;;;;2.58;2.38;;;19.20;46.30;;;;;;4974330;28;20189;-69
2023/04/06 01:23:45;;;;;;;2.75;2.55;;;19.20;46.30;;;;;;4958757;28;20205;-69
2023/04/06 01:26:13;;;;;;;2.50;2.30;;;19.20;46.30;;;;;;4974258;28;20681;-69
2023/04/06 01:28:40;;;;;;;3.10;2.80;;;19.30;46.30;;;;;;4974005;28;20212;-69
2023/04/06 01:31:27;;;;;;;2.80;2.60;;;19.20;46.20;;;;;;4974267;28;20185;-69
2023/04/06 01:33:54;;;;;;;3.10;2.80;;;19.20;46.30;;;;;;4975508;28;20257;-69
2023/04/06 01:36:23;;;;;;;2.90;2.60;;;19.20;46.30;;;;;;4974222;28;20193;-68
2023/04/06 01:38:57;;;;;;;2.50;2.17;;;19.20;46.30;;;;;;4973957;28;20217;-69
2023/04/06 01:41:30;;;;;;;2.40;2.20;;;19.20;46.90;;;;;;4975116;28;20252;-69
2023/04/06 01:43:56;;;;;;;2.70;2.50;;;19.20;46.30;;;;;;4973993;28;20185;-68
2023/04/06 01:46:26;;;;;;;2.95;2.65;;;19.20;46.30;;;;;;4974047;28;20208;-69
2023/04/06 01:48:52;;;;;;;2.92;2.70;;;19.20;46.30;;;;;;4973977;28;20208;-69
2023/04/06 01:51:35;;;;;;;3.00;2.80;;;19.20;46.30;;;;;;4958983;28;20186;-69
2023/04/06 01:54:04;;;;;;;2.90;2.53;;;19.20;46.20;;;;;;4973748;28;20237;-69
2023/04/06 01:56:43;;;;;;;2.88;2.67;;;19.20;46.30;;;;;;4973613;28;20192;-69
2023/04/06 01:59:25;;;;;;;2.78;2.58;;;19.20;46.20;;;;;;4973752;28;20264;-69
2023/04/06 02:01:52;;;;;;;2.80;2.60;;;19.20;46.30;;;;;;4957413;28;20217;-69
2023/04/06 02:04:18;;;;;;;2.90;2.70;;;19.10;46.20;;;;;;4973863;28;20190;-69
2023/04/06 02:06:46;;;;;;;2.70;2.45;;;19.20;46.20;;;;;;4973572;28;20189;-69
2023/04/06 02:09:15;;;;;;;2.90;2.60;;;19.20;46.90;;;;;;4973312;28;20210;-69
2023/04/06 02:11:41;;;;;;;3.28;2.67;;;19.20;46.30;;;;;;4973002;28;20213;-69
2023/04/06 02:14:07;;;;;;;2.60;2.40;;;19.10;46.20;;;;;;4957601;28;20208;-69
2023/04/06 02:16:38;;;;;;;2.67;2.47;;;19.10;46.20;;;;;;4973147;28;20189;-68
2023/04/06 02:19:04;;;;;;;3.08;2.78;;;19.20;46.20;;;;;;4973282;28;20209;-69
2023/04/06 02:21:30;;;;;;;2.80;2.60;;;19.20;46.20;;;;;;4972848;28;20233;-69
2023/04/06 02:23:56;;;;;;;3.10;2.80;;;19.20;46.20;;;;;;4973159;28;20268;-68
2023/04/06 02:26:21;;;;;;;2.97;2.72;;;19.10;46.20;;;;;;4953873;28;20191;-68
2023/04/06 02:28:47;;;;;;;2.85;2.65;;;19.20;46.20;;;;;;4956915;28;20245;-69
2023/04/06 02:31:15;;;;;;;2.88;2.60;;;19.10;46.20;;;;;;4956163;28;20182;-69
2023/04/06 02:33:42;;;;;;;2.80;2.53;;;19.20;46.20;;;;;;4972982;28;20209;-69
2023/04/06 02:36:09;;;;;;;3.17;2.60;;;19.10;46.10;;;;;;4957166;28;20197;-69
2023/04/06 02:38:35;;;;;;;2.70;2.50;;;19.10;46.00;;;;;;4972484;28;20228;-69
2023/04/06 02:41:02;;;;;;;2.65;2.45;;;19.10;46.10;;;;;;4972822;28;20693;-69
2023/04/06 02:43:29;;;;;;;3.45;2.58;;;19.10;46.20;;;;;;4972598;28;20228;-68
2023/04/06 02:46:03;;;;;;;2.70;2.50;;;19.10;45.90;;;;;;4972752;28;20177;-69
2023/04/06 02:48:36;;;;;;;3.45;3.00;;;19.10;46.10;;;;;;4972542;28;20205;-69
2023/04/06 02:51:02;;;;;;;2.83;2.55;;;19.10;46.10;;;;;;4972557;28;20182;-69
2023/04/06 02:53:28;;;;;;;2.78;2.45;;;19.10;46.20;;;;;;4970992;28;20450;-69
2023/04/06 02:55:54;;;;;;;2.65;2.40;;;19.10;46.20;;;;;;4953350;29;20273;-69
2023/04/06 02:58:20;;;;;;;2.80;2.60;;;19.10;46.20;;;;;;4985172;28;20232;-69
2023/04/06 03:00:50;;;;;;;3.22;2.90;;;19.10;46.10;;;;;;4972655;28;20198;-69
2023/04/06 03:03:16;;;;;;;3.38;2.47;;;19.10;46.20;;;;;;4972809;28;20214;-69
2023/04/06 03:05:44;;;;;;;2.60;2.40;;;19.10;46.10;;;;;;4972435;28;20217;-69
2023/04/06 03:08:10;;;;;;;2.97;2.70;;;19.10;46.10;;;;;;4972233;28;20296;-69
2023/04/06 03:10:41;;;;;;;2.83;2.63;;;19.10;46.20;;;;;;4956585;28;20195;-69
2023/04/06 03:13:07;;;;;;;2.70;2.50;;;19.10;46.10;;;;;;4956487;28;20186;-69
2023/04/06 03:16:46;;;;;;;2.58;2.38;;;19.10;46.10;;;;;;4994825;23;20240;-65
2023/04/06 03:19:17;;;;;;;2.90;2.70;;;19.10;45.90;;;;;;4950832;28;20193;-65
2023/04/06 03:21:43;;;;;;;2.65;2.30;;;19.00;46.00;;;;;;4971603;28;20210;-65
2023/04/06 03:24:10;;;;;;;2.67;2.47;;;19.00;46.10;;;;;;4977737;28;20181;-64
2023/04/06 03:26:35;;;;;;;2.90;2.70;;;19.10;46.10;;;;;;4973390;28;20210;-65
2023/04/06 03:29:05;;;;;;;2.53;2.33;;;19.00;46.10;;;;;;4964131;28;20185;-64
2023/04/06 03:31:31;;;;;;;2.90;2.60;;;19.10;46.10;;;;;;4971549;28;20272;-65
2023/04/06 03:34:00;;;;;;;2.85;2.65;;;19.00;46.00;;;;;;4992264;28;20186;-65
2023/04/06 03:36:30;;;;;;;2.88;2.58;;;19.00;46.00;;;;;;4970741;28;20214;-65
2023/04/06 03:38:57;;;;;;;2.65;2.45;;;19.10;46.00;;;;;;4967933;28;20196;-65
2023/04/06 03:41:23;;;;;;;2.63;2.42;;;19.10;45.90;;;;;;4982778;28;20316;-64
2023/04/06 03:44:01;;;;;;;3.17;2.88;;;19.00;45.70;;;;;;4985984;28;20189;-61
2023/04/06 03:46:27;;;;;;;3.47;3.17;;;19.10;45.80;;;;;;4987545;28;20275;-65
2023/04/06 03:48:55;;;;;;;3.00;2.70;;;19.00;45.70;;;;;;4990724;28;20177;-65
2023/04/06 03:51:23;;;;;;;2.60;2.40;;;19.00;45.70;;;;;;4990192;28;20636;-65
2023/04/06 03:53:49;;;;;;;2.72;2.53;;;19.00;45.80;;;;;;4982456;28;20192;-63
2023/04/06 03:56:15;;;;;;;3.00;2.80;;;19.00;45.70;;;;;;4990615;28;20204;-64
2023/04/06 03:58:41;;;;;;;2.90;2.70;;;19.00;46.00;;;;;;4974362;28;20189;-65
2023/04/06 04:01:06;;;;;;;2.90;2.70;;;19.00;45.80;;;;;;4990446;28;20185;-65
2023/04/06 04:03:34;;;;;;;2.92;2.55;;;19.00;45.80;;;;;;4989638;28;20774;-65
2023/04/06 04:05:59;;;;;;;2.70;2.42;;;19.00;45.80;;;;;;4971138;28;20205;-64
2023/04/06 04:08:25;;;;;;;3.00;2.70;;;19.00;46.00;;;;;;4979281;28;20646;-66
2023/04/06 04:10:51;;;;;;;3.80;2.92;;;19.00;45.80;;;;;;4990086;28;20192;-65
2023/04/06 04:13:19;;;;;;;2.75;2.55;;;19.00;45.90;;;;;;5006806;28;20181;-65
2023/04/06 04:15:47;;;;;;;2.78;2.58;;;19.00;45.90;;;;;;4979563;28;20703;-65
2023/04/06 04:18:15;;;;;;;3.03;2.72;;;19.00;45.70;;;;;;4985444;28;20204;-65
2023/04/06 04:20:41;;;;;;;2.97;2.60;;;19.00;46.10;;;;;;4991361;28;20579;-65
2023/04/06 04:23:09;;;;;;;3.00;2.70;;;19.10;45.90;;;;;;4990322;28;20209;-63
2023/04/06 04:25:35;;;;;;;3.20;2.88;;;19.00;45.70;;;;;;5005375;28;20243;-65
2023/04/06 04:28:02;;;;;;;3.58;2.90;;;19.00;45.70;;;;;;4995388;28;20225;-65
2023/04/06 04:30:28;;;;;;;3.08;2.78;;;19.00;45.70;;;;;;4978798;28;20182;-64
2023/04/06 04:32:54;;;;;;;2.83;2.63;;;19.00;45.70;;;;;;4958343;28;20193;-65
2023/04/06 04:35:22;;;;;;;3.03;2.67;;;19.00;46.30;;;;;;4991407;28;20213;-64
2023/04/06 04:37:49;;;;;;;2.72;2.53;;;19.00;45.70;;;;;;4965179;28;20201;-66
2023/04/06 04:40:16;;;;;;;2.67;2.47;;;19.00;45.70;;;;;;4986226;28;20192;-65
2023/04/06 04:43:02;;;;;;;2.85;2.55;;;19.00;45.70;;;;;;4983993;28;20236;-65
2023/04/06 04:45:32;;;;;;;2.50;2.30;;;19.00;45.70;;;;;;4982525;28;20264;-65
2023/04/06 04:48:04;;;;;;;2.83;2.63;;;19.00;45.70;;;;;;4987857;28;20181;-65
2023/04/06 04:50:39;;;;;;;2.92;2.67;;;19.00;45.70;;;;;;4983647;28;20193;-65
2023/04/06 04:53:05;;;;;;;2.75;2.55;;;19.00;45.70;;;;;;4979141;28;20193;-66
2023/04/06 04:55:32;;;;;;;3.58;3.00;;;19.00;45.70;;;;;;4993532;28;20347;-65
2023/04/06 04:57:59;;;;;;;2.45;2.30;;;19.00;45.70;;;;;;4994039;28;20668;-65
2023/04/06 05:00:39;;;;;;;2.50;2.30;;;19.00;45.70;;;;;;4985197;28;20220;-66
2023/04/06 05:03:06;;;;;;;2.80;2.60;;;19.00;45.70;;;;;;5001618;28;20212;-65
2023/04/06 05:05:36;;;;;;;2.88;2.67;;;19.00;45.70;;;;;;4985780;28;20200;-66
2023/04/06 05:08:03;;;;;;;2.88;2.67;;;19.00;45.70;;;;;;4970628;28;20180;-65
2023/04/06 05:10:39;;;;;;;3.08;2.60;;;19.00;45.70;;;;;;4970572;28;20196;-65
2023/04/06 05:13:06;;;;;;;2.92;2.63;;;19.00;45.70;;;;;;4972684;28;20241;-65
2023/04/06 05:15:34;;;;;;;2.70;2.50;;;19.00;45.70;;;;;;4990037;28;20220;-63
2023/04/06 05:18:08;;;;;;;2.60;2.40;;;19.00;45.70;;;;;;4988544;28;20189;-65
2023/04/06 05:20:35;;;;;;;3.28;3.05;;;19.00;45.70;;;;;;4982092;28;20204;-65
2023/04/06 05:23:02;;;;;;;2.75;2.55;;;19.00;45.70;;;;;;4981281;28;20202;-65
2023/04/06 05:25:28;;;;;;;2.60;2.40;;;19.00;45.70;;;;;;4973347;28;20327;-65
2023/04/06 05:28:00;;;;;;;2.97;2.78;;;19.00;45.70;;;;;;4993185;28;20189;-64
2023/04/06 05:30:30;;;;;;;3.08;2.78;;;19.00;45.70;;;;;;4975700;28;20190;-64
2023/04/06 05:32:56;;;;;;;2.88;2.67;;;19.00;45.70;;;;;;4954622;28;20200;-63
2023/04/06 05:35:25;;;;;;;2.92;2.60;;;19.00;45.70;;;;;;4980697;28;20231;-65
2023/04/06 05:37:55;;;;;;;2.88;2.60;;;19.00;45.70;;;;;;4981967;28;20194;-66
2023/04/06 05:40:24;;;;;;;2.55;2.35;;;19.00;45.70;;;;;;4963803;28;20196;-66
2023/04/06 05:42:51;;;;;;;2.90;2.40;;;19.00;45.70;;;;;;4972760;28;20268;-65
2023/04/06 05:45:18;;;;;;;3.00;2.80;;;19.00;45.70;;;;;;4972090;28;20205;-66
2023/04/06 05:47:49;;;;;;;3.17;2.88;;;19.00;45.70;;;;;;4956752;28;20186;-65
2023/04/06 05:50:29;;;;;;;2.85;2.65;;;19.00;45.70;;;;;;4981150;28;20757;-65
2023/04/06 05:52:56;;;;;;;3.63;3.33;;;19.10;45.80;;;;;;4992771;28;20596;-65
2023/04/06 05:55:25;;;;;;;3.55;2.88;;;19.00;45.70;;;;;;4992887;28;20263;-65
2023/04/06 05:58:03;;;;;;;2.78;2.58;;;19.10;45.80;;;;;;4993349;28;20211;-65
2023/04/06 06:00:29;;;;;;;3.13;2.83;;;19.10;45.80;;;;;;4990328;28;20213;-66
2023/04/06 06:03:04;;;;;;;2.75;2.55;;;19.10;45.80;;;;;;4979039;28;20209;-66
2023/04/06 06:05:31;;;;;;;2.90;2.60;;;19.10;45.80;;;;;;4957931;28;20225;-65
2023/04/06 06:08:03;;;;;;;2.97;2.65;;;19.10;45.80;;;;;;4981705;28;20178;-65
2023/04/06 06:10:29;;;;;;;2.95;2.75;;;19.10;45.80;;;;;;4955876;28;20182;-64
2023/04/06 06:12:55;;;;;;;3.00;2.70;;;19.10;45.80;;;;;;4975009;28;20194;-65
2023/04/06 06:15:21;;;;;;;2.80;2.60;;;19.10;45.80;;;;;;4977390;28;20213;-62
2023/04/06 06:17:48;;;;;;;3.13;2.65;;;19.10;45.80;;;;;;4989455;28;20258;-65
2023/04/06 06:20:14;;;;;;;3.28;2.97;;;19.10;45.80;;;;;;4965107;28;20324;-65
2023/04/06 06:22:41;;;;;;;5.35;3.00;;;19.10;45.80;;;;;;4957284;28;20213;-65
2023/04/06 06:25:12;;;;;;;4.03;3.10;;;19.10;45.80;;;;;;4978535;28;20209;-65
2023/04/06 06:27:37;;;;;;;3.70;3.22;;;19.10;45.80;;;;;;5000467;28;20193;-63
2023/04/06 06:30:06;;;;;;;4.03;3.42;;;19.10;45.80;;;;;;4965677;28;20177;-64
2023/04/06 06:32:32;;;;;;;3.17;2.88;;;19.10;45.80;;;;;;4973907;28;20185;-65
2023/04/06 06:34:59;;;;;;;3.08;2.78;;;19.10;45.80;;;;;;4984263;28;20188;-64
2023/04/06 06:37:25;;;;;;;4.05;3.10;;;19.20;45.90;;;;;;5000199;28;20204;-65
2023/04/06 06:39:51;;;;;;;3.10;2.80;;;19.20;45.80;;;;;;4981018;28;20182;-65
2023/04/06 06:42:20;;;;;;;3.30;3.00;;;19.20;45.80;;;;;;4971085;28;20267;-65
2023/04/06 06:45:07;;;;;;;4.28;3.30;;;19.30;45.90;;;;;;4982860;28;20223;-64
2023/04/06 06:47:33;;;;;;;3.30;3.10;;;19.30;45.90;;;;;;4995225;28;20209;-64
2023/04/06 06:49:59;;;;;;;3.20;2.90;;;19.30;45.90;;;;;;4985893;28;20189;-65
2023/04/06 06:52:25;;;;;;;3.97;3.25;;;19.30;45.90;;;;;;4973343;28;20204;-66
2023/04/06 06:54:51;;;;;;;3.83;3.30;;;19.30;45.90;;;;;;4974110;28;20189;-65
2023/04/06 06:57:19;;;;;;;4.22;3.53;;;19.30;45.80;;;;;;4954181;28;20186;-66
2023/04/06 06:59:46;;;;;;;3.65;3.35;;;19.30;45.80;;;;;;4973550;28;20593;-65
2023/04/06 07:02:12;;;;;;;3.58;3.28;;;19.40;45.80;;;;;;4971499;28;20225;-65
2023/04/06 07:04:38;;;;;;;3.55;3.22;;;19.40;45.80;;;;;;4974595;28;20228;-63
2023/04/06 07:07:04;;;;;;;3.58;3.28;;;19.40;45.80;;;;;;4968935;28;20205;-65
2023/04/06 07:09:30;;;;;;;4.18;3.78;;;19.40;45.80;;;;;;4958953;28;20182;-65
2023/04/06 07:11:56;;;;;;;4.05;3.65;;;19.40;45.80;;;;;;4973993;28;20328;-65
2023/04/06 07:14:22;;;;;;;4.28;3.60;;;19.40;45.80;;;;;;4985499;28;20650;-65
2023/04/06 07:16:49;;;;;;;3.50;3.20;;;19.50;45.90;;;;;;4983760;28;20303;-65
2023/04/06 07:19:15;;;;;;;3.72;3.42;;;19.50;45.80;;;;;;4977576;28;20235;-65
2023/04/06 07:21:42;;;;;;;4.07;3.13;;;19.50;46.30;;;;;;4976904;28;20177;-65
2023/04/06 07:24:07;;;;;;;4.13;3.20;;;19.50;45.90;;;;;;4991894;28;20181;-65
2023/04/06 07:26:33;;;;;;;3.83;3.38;;;19.50;45.90;;;;;;4983862;28;20312;-65
2023/04/06 07:28:59;;;;;;;3.60;3.30;;;19.50;45.90;;;;;;4989259;28;20196;-65
2023/04/06 07:31:25;;;;;;;3.50;3.20;;;19.60;45.90;;;;;;4963997;28;20266;-66
2023/04/06 07:33:52;;;;;;;3.65;3.05;;;19.60;45.90;;;;;;4969695;28;20231;-65
2023/04/06 07:36:18;;;;;;;3.25;2.95;;;19.60;45.90;;;;;;4994189;28;20248;-65
2023/04/06 07:38:45;;;;;;;3.75;3.20;;;19.60;45.90;;;;;;4979067;28;20228;-66
2023/04/06 07:41:12;;;;;;;2.95;2.70;;;19.70;46.10;;;;;;4984582;28;20212;-64
2023/04/06 07:43:39;;;;;;;3.30;3.00;;;19.70;46.00;;;;;;4975202;28;20611;-64
2023/04/06 07:46:06;;;;;;;4.13;2.92;;;19.70;46.00;;;;;;4975658;28;20560;-65
2023/04/06 07:48:32;;;;;;;3.40;3.10;;;19.70;46.00;;;;;;4982126;28;20192;-65
2023/04/06 07:51:06;;;;;;;3.85;3.05;;;19.70;46.00;;;;;;4980804;28;20229;-65
2023/04/06 07:53:36;;;;;;;3.28;2.92;;;19.80;46.00;;;;;;4964947;28;20201;-65
2023/04/06 07:56:01;;;;;;;3.30;3.00;;;19.80;46.00;;;;;;4983332;28;20343;-65
2023/04/06 07:58:27;;;;;;;3.20;2.90;;;19.80;46.00;;;;;;4977091;28;20272;-65
2023/04/06 08:00:54;;;;;;;3.40;3.10;;;19.80;45.90;;;;;;4983656;28;20264;-67
2023/04/06 08:03:21;;;;;;;3.50;3.20;;;19.80;46.00;;;;;;4988230;28;20204;-66
2023/04/06 08:05:46;;;;;;;2.90;2.60;;;19.80;45.90;;;;;;4988116;28;20308;-66
2023/04/06 08:08:12;;;;;;;3.63;3.25;;;19.90;46.00;;;;;;4969690;28;20320;-66
2023/04/06 08:10:38;;;;;;;3.75;2.78;;;19.80;45.90;;;;;;4984030;28;20192;-66
2023/04/06 08:13:04;;;;;;;3.75;3.13;;;19.90;46.00;;;;;;4979199;28;20197;-66
2023/04/06 08:15:30;;;;;;;3.70;3.40;;;19.90;45.90;;;;;;4975538;28;20224;-66
2023/04/06 08:17:57;;;;;;;3.20;3.00;;;19.90;45.90;;;;;;4972861;28;20708;-66
2023/04/06 08:20:22;;;;;;;4.43;3.05;;;19.90;45.90;;;;;;5004702;28;20199;-65
2023/04/06 08:22:48;;;;;;;3.35;3.05;;;19.90;46.00;;;;;;4989442;28;20212;-66
2023/04/06 08:25:14;;;;;;;3.40;3.10;;;19.90;45.90;;;;;;4990629;28;20590;-65
2023/04/06 08:27:40;;;;;;;2.80;2.60;;;19.90;45.90;;;;;;4991482;28;20191;-65
2023/04/06 08:30:06;;;;;;;2.92;2.55;;;20.00;45.90;;;;;;4999353;28;20199;-66
2023/04/06 08:32:32;;;;;;;3.58;2.80;;;20.00;45.90;;;;;;4979723;28;20580;-66
2023/04/06 08:34:58;;;;;;;5.72;3.00;;;20.00;45.90;;;;;;4982990;28;20198;-67
2023/04/06 08:37:25;;;;;;;3.30;3.00;;;20.00;45.90;;;;;;4975477;28;20244;-65
2023/04/06 08:39:51;;;;;;;2.92;2.63;;;20.00;45.90;;;;;;4987105;28;20280;-66
2023/04/06 08:42:21;;;;;;;4.93;2.78;;;20.00;45.90;;;;;;4983987;28;20297;-66
2023/04/06 08:44:50;;;;;;;4.35;2.60;;;20.00;45.90;;;;;;4976262;28;20277;-66
2023/04/06 08:47:17;;;;;;;2.92;2.72;;;20.00;45.90;;;;;;4986519;28;20185;-66
2023/04/06 08:49:45;;;;;;;3.45;2.35;;;20.00;45.90;;;;;;4959107;28;20224;-66
2023/04/06 08:52:12;;;;;;;3.60;2.50;;;20.00;45.90;;;;;;4974534;28;20200;-66
2023/04/06 08:54:38;;;;;;;4.50;2.58;;;20.00;45.90;;;;;;5003185;28;20200;-64
2023/04/06 08:57:06;;;;;;;2.75;2.40;;;20.00;46.00;;;;;;4971939;28;20213;-63
2023/04/06 08:59:33;;;;;;;3.00;2.75;;;20.10;46.10;;;;;;4981277;28;20257;-67
2023/04/06 09:02:07;;;;;;;2.80;2.60;;;20.10;46.10;;;;;;4992743;28;20191;-65
2023/04/06 09:04:35;;;;;;;3.53;2.45;;;20.10;46.30;;;;;;4994592;28;20180;-66
2023/04/06 09:07:01;;;;;;;2.80;2.45;;;20.10;46.20;;;;;;4965968;28;20241;-65
2023/04/06 09:09:27;;;;;;;2.70;2.50;;;20.00;46.10;;;;;;4988965;28;20217;-66
2023/04/06 09:11:53;;;;;;;4.10;2.60;;;20.00;46.00;;;;;;4987185;28;20269;-66
2023/04/06 09:14:39;;;;;;;2.70;2.50;;;20.10;45.90;;;;;;4959605;28;20273;-65
2023/04/06 09:17:05;;;;;;;3.65;2.72;;;20.10;45.70;;;;;;5000900;23;20237;-67
2023/04/06 09:19:31;;;;;;;3.22;2.58;;;20.00;45.50;;;;;;4975690;28;20194;-67
2023/04/06 09:22:07;;;;;;;2.80;2.60;;;20.10;45.50;;;;;;4983871;28;20185;-67
2023/04/06 09:24:47;;;;;;;2.75;2.35;;;20.00;45.30;;;;;;4985873;28;20184;-67
2023/04/06 09:27:15;;;;;;;2.53;2.33;;;20.10;45.20;;;;;;4985740;28;20204;-67
2023/04/06 09:29:42;;;;;;;2.28;2.08;;;20.10;45.30;;;;;;4993167;28;20189;-68
2023/04/06 09:32:10;;;;;;;3.58;2.30;;;20.10;45.20;;;;;;4970317;28;20204;-68
2023/04/06 09:34:39;;;;;;;2.38;2.17;;;20.10;45.20;;;;;;4973871;28;20196;-69
2023/04/06 09:37:19;;;;;;;4.00;2.17;;;20.10;45.40;;;;;;4968716;28;20275;-67
2023/04/06 09:39:46;;;;;;;4.90;2.50;;;20.20;46.20;;;;;;4985719;28;20240;-67
2023/04/06 09:42:25;;;;;;;4.72;2.40;;;20.20;46.00;;;;;;4958142;28;20300;-67
2023/04/06 09:44:51;;;;;;;3.00;2.30;;;20.20;45.60;;;;;;4966099;28;20190;-67
2023/04/06 09:47:18;;;;;;;5.78;2.17;;;20.20;45.80;;;;;;4977856;28;20208;-67
2023/04/06 09:49:47;;;;;;;7.43;2.15;;;20.10;45.80;;;;;;4969343;28;20207;-67
2023/04/06 09:52:15;;;;;;;17.23;2.40;;;20.10;45.50;;;;;;4977340;28;20193;-67
2023/04/06 09:54:43;;;;;;;4.88;2.50;;;20.10;45.60;;;;;;4986340;28;20224;-67
2023/04/06 09:57:25;;;;;;;2.95;2.13;;;20.10;45.60;;;;;;4969518;28;20224;-67
2023/04/06 10:00:08;;;;;;;2.95;2.30;;;20.10;45.60;;;;;;4985016;28;20200;-67
2023/04/06 10:02:45;;;;;;;2.35;2.15;;;20.10;45.60;;;;;;4983119;28;20272;-67
2023/04/06 10:05:58;;;;;;;3.65;2.05;;;20.10;45.60;;;;;;4972888;28;20276;-67
2023/04/06 10:08:28;;;;;;;3.25;2.40;;;20.10;45.50;;;;;;4964415;28;20282;-67
2023/04/06 10:10:56;;;;;;;3.22;2.38;;;20.10;45.60;;;;;;4973600;28;20233;-67
2023/04/06 10:13:24;;;;;;;2.35;2.15;;;20.10;45.60;;;;;;4975070;28;20185;-67
2023/04/06 10:15:52;;;;;;;2.42;2.13;;;20.10;45.50;;;;;;4955878;28;20221;-67
2023/04/06 10:18:20;;;;;;;2.58;1.73;;;20.10;45.60;;;;;;4971496;28;20317;-67
2023/04/06 10:21:08;;;;;;;3.40;2.10;;;20.10;45.60;;;;;;4974394;28;20190;-67
2023/04/06 10:23:41;;;;;;;3.70;2.00;;;20.10;45.60;;;;;;4973615;28;20301;-67
2023/04/06 10:26:16;;;;;;;2.97;2.17;;;20.10;45.60;;;;;;4957766;28;20213;-67
2023/04/06 10:28:45;;;;;;;3.40;1.80;;;20.10;45.50;;;;;;4971543;28;20185;-67
2023/04/06 10:31:12;;;;;;;2.50;2.00;;;20.10;45.40;;;;;;4957289;28;20188;-67
2023/04/06 10:33:38;;;;;;;2.00;1.90;;;20.10;45.40;;;;;;4970852;28;20196;-68
2023/04/06 10:36:23;;;;;;;3.05;2.13;;;20.10;45.30;;;;;;4972712;28;20209;-67
2023/04/06 10:38:58;;;;;;;2.63;2.03;;;20.10;45.20;;;;;;4971400;28;20193;-67
2023/04/06 10:41:31;;;;;;;2.40;2.03;;;20.10;45.20;;;;;;4972109;28;20185;-67
2023/04/06 10:43:57;;;;;;;2.58;2.30;;;20.10;45.40;;;;;;4970835;28;20210;-67
2023/04/06 10:46:34;;;;;;;2.10;1.90;;;20.10;45.50;;;;;;4974135;28;20300;-67
2023/04/06 10:49:12;;;;;;;3.55;2.13;;;20.10;45.40;;;;;;4972602;28;20181;-67
2023/04/06 10:51:39;;;;;;;2.00;1.80;;;20.10;45.50;;;;;;4970255;28;20173;-67
2023/04/06 10:54:07;;;;;;;2.78;1.80;;;20.10;45.50;;;;;;4972917;28;20182;-67
2023/04/06 10:56:36;;;;;;;2.67;1.77;;;20.10;45.50;;;;;;4957302;28;20212;-67
2023/04/06 10:59:02;;;;;;;1.98;1.73;;;20.10;45.60;;;;;;4973969;28;20182;-68
2023/04/06 11:01:28;;;;;;;2.05;1.63;;;20.10;45.60;;;;;;4972431;28;20260;-67
2023/04/06 11:03:59;;;;;;;1.80;1.60;;;20.10;45.50;;;;;;4972078;28;20216;-67
2023/04/06 11:06:31;;;;;;;1.88;1.77;;;20.20;45.40;;;;;;4971812;28;20208;-67
2023/04/06 11:08:58;;;;;;;3.13;2.08;;;20.10;45.40;;;;;;4971723;28;20651;-67
2023/04/06 11:11:26;;;;;;;1.98;1.73;;;20.10;45.40;;;;;;4955869;28;20272;-67
2023/04/06 11:13:56;;;;;;;3.00;2.25;;;20.10;45.50;;;;;;4972283;28;20185;-67
2023/04/06 11:16:26;;;;;;;1.83;1.73;;;20.10;45.40;;;;;;4967283;28;20220;-67
2023/04/06 11:19:09;;;;;;;2.08;1.88;;;20.10;45.40;;;;;;4973226;28;20186;-67
2023/04/06 11:21:39;;;;;;;1.65;1.50;;;20.10;45.40;;;;;;4971489;28;20189;-66
2023/04/06 11:24:22;;;;;;;2.65;1.70;;;20.10;45.40;;;;;;4955580;28;20235;-68
2023/04/06 11:26:58;;;;;;;1.70;1.50;;;20.10;45.40;;;;;;4975842;28;20265;-67
2023/04/06 11:29:31;;;;;;;2.88;1.85;;;20.10;45.40;;;;;;4977251;28;20231;-67
2023/04/06 11:32:03;;;;;;;2.13;1.92;;;20.10;45.60;;;;;;4974732;28;20182;-67
2023/04/06 11:34:33;;;;;;;1.92;1.75;;;20.10;45.40;;;;;;4978319;28;20216;-67
2023/04/06 11:37:02;;;;;;;1.77;1.45;;;20.20;45.60;;;;;;4976241;28;20206;-67
2023/04/06 11:39:30;;;;;;;3.28;1.80;;;20.20;45.30;;;;;;4978351;28;20205;-67
2023/04/06 11:42:02;;;;;;;1.92;1.83;;;20.20;45.40;;;;;;4957941;28;20196;-66
2023/04/06 11:44:45;;;;;;;2.55;1.88;;;20.20;45.20;;;;;;4975833;28;20189;-67
2023/04/06 11:47:12;;;;;;;1.73;1.63;;;20.20;45.30;;;;;;4973244;28;20245;-67
2023/04/06 11:49:41;;;;;;;2.05;1.92;;;20.10;45.20;;;;;;4975145;28;20219;-67
2023/04/06 11:52:24;;;;;;;2.92;1.90;;;20.10;46.00;;;;;;4966848;28;20279;-67
2023/04/06 11:54:53;;;;;;;2.15;1.95;;;20.10;45.20;;;;;;4983400;28;20208;-67
2023/04/06 11:57:21;;;;;;;1.80;1.70;;;20.20;45.30;;;;;;4960579;28;20222;-66
2023/04/06 11:59:47;;;;;;;1.70;1.60;;;20.20;45.10;;;;;;4999104;28;20196;-67
2023/04/06 12:02:13;;;;;;;2.35;1.75;;;20.20;45.00;;;;;;4980652;28;20223;-67
2023/04/06 12:04:39;;;;;;;1.95;1.75;;;20.20;45.00;;;;;;4985897;28;20188;-67
2023/04/06 12:07:05;;;;;;;2.58;1.70;;;20.20;45.10;;;;;;4986463;28;20680;-67
2023/04/06 12:09:32;;;;;;;2.67;1.60;;;20.20;44.90;;;;;;4976649;28;20177;-67
2023/04/06 12:11:57;;;;;;;1.92;1.83;;;20.10;45.00;;;;;;4983117;28;20196;-67
2023/04/06 12:14:23;;;;;;;2.10;1.90;;;20.10;44.80;;;;;;4991406;28;20177;-67
2023/04/06 12:16:50;;;;;;;1.85;1.75;;;20.10;45.00;;;;;;4983855;28;20217;-67
2023/04/06 12:19:15;;;;;;;1.80;1.70;;;20.10;45.00;;;;;;4963665;28;20196;-67
2023/04/06 12:21:42;;;;;;;1.77;1.67;;;20.10;45.00;;;;;;4978235;28;20178;-67
2023/04/06 12:24:08;;;;;;;2.80;1.70;;;20.20;45.20;;;;;;4963832;28;20209;-67
2023/04/06 12:26:37;;;;;;;1.60;1.50;;;20.20;45.90;;;;;;4968728;28;20208;-67
2023/04/06 12:29:06;;;;;;;2.33;1.80;;;20.20;45.20;;;;;;4982053;28;20280;-67
2023/04/06 12:31:35;;;;;;;1.73;1.63;;;20.20;45.20;;;;;;4968578;28;20276;-67
2023/04/06 12:34:03;;;;;;;1.80;1.65;;;20.20;45.20;;;;;;4976160;28;20213;-67
2023/04/06 12:36:29;;;;;;;1.70;1.60;;;20.20;45.30;;;;;;4974844;28;20702;-67
2023/04/06 12:38:55;;;;;;;1.58;1.48;;;20.20;45.30;;;;;;4982941;28;20606;-67
2023/04/06 12:41:21;;;;;;;3.40;1.70;;;20.20;45.20;;;;;;4982944;28;20199;-67
2023/04/06 12:43:48;;;;;;;1.60;1.50;;;20.20;45.00;;;;;;4967148;28;20739;-67
2023/04/06 12:46:14;;;;;;;1.85;1.75;;;20.20;45.40;;;;;;4966611;28;20585;-67
2023/04/06 12:48:40;;;;;;;2.08;1.90;;;20.20;45.10;;;;;;4969102;28;20641;-67
2023/04/06 12:51:06;;;;;;;1.70;1.60;;;20.20;45.00;;;;;;4979599;28;20244;-67
2023/04/06 12:53:34;;;;;;;2.78;2.03;;;20.20;45.20;;;;;;4979934;28;20186;-67
2023/04/06 12:56:01;;;;;;;2.17;1.35;;;20.20;45.10;;;;;;4979753;28;20219;-67
2023/04/06 12:58:28;;;;;;;1.92;1.67;;;20.20;45.30;;;;;;4968565;28;20186;-67